createdAt,value
2022-11-22T00:01:01.064Z,1.60
2022-11-22T00:03:28.896Z,1.47
2022-11-22T00:05:58.166Z,1.30
2022-11-22T00:08:26.131Z,1.17
2022-11-22T00:10:54.135Z,1.20
2022-11-22T00:13:22.735Z,1.57
2022-11-22T00:15:59.680Z,1.30
2022-11-22T00:18:27.514Z,1.70
2022-11-22T00:20:55.372Z,1.50
2022-11-22T00:23:24.889Z,1.10
2022-11-22T00:25:52.812Z,1.00
2022-11-22T00:28:20.840Z,1.40
2022-11-22T00:30:48.705Z,1.10
2022-11-22T00:33:16.637Z,1.00
2022-11-22T00:35:46.573Z,1.70
2022-11-22T00:38:14.352Z,1.63
2022-11-22T00:40:44.166Z,1.47
2022-11-22T00:43:12.082Z,1.20
2022-11-22T00:45:42.161Z,1.30
2022-11-22T00:48:13.096Z,1.33
2022-11-22T00:50:41.431Z,1.43
2022-11-22T00:53:11.834Z,1.50
2022-11-22T00:55:40.773Z,1.30
2022-11-22T00:58:10.122Z,1.30
2022-11-22T01:00:38.279Z,1.70
2022-11-22T01:03:06.162Z,1.13
2022-11-22T01:05:34.190Z,1.47
2022-11-22T01:08:02.007Z,1.40
2022-11-22T01:10:32.801Z,1.43
2022-11-22T01:13:01.229Z,1.80
2022-11-22T01:15:30.534Z,1.43
2022-11-22T01:17:58.932Z,1.80
2022-11-22T01:20:26.784Z,1.80
2022-11-22T01:22:54.544Z,2.20
2022-11-22T01:25:22.406Z,1.60
2022-11-22T01:27:51.092Z,1.70
2022-11-22T01:30:19.187Z,2.10
2022-11-22T01:32:48.406Z,2.27
2022-11-22T01:35:16.417Z,1.70
2022-11-22T01:37:44.330Z,1.87
2022-11-22T01:40:13.033Z,1.57
2022-11-22T01:42:44.431Z,1.77
2022-11-22T01:45:47.282Z,1.77
2022-11-22T01:48:32.676Z,2.00
2022-11-22T01:51:06.894Z,1.67
2022-11-22T01:53:38.543Z,1.77
2022-11-22T01:56:10.952Z,1.80
2022-11-22T01:58:41.411Z,1.87
2022-11-22T02:01:09.390Z,2.10
2022-11-22T02:03:41.951Z,1.90
2022-11-22T02:06:09.827Z,2.10
2022-11-22T02:08:43.091Z,2.00
2022-11-22T02:11:12.376Z,1.77
2022-11-22T02:13:44.231Z,2.10
2022-11-22T02:16:12.819Z,1.77
2022-11-22T02:18:42.465Z,2.40
2022-11-22T02:21:10.598Z,3.37
2022-11-22T02:23:56.462Z,2.80
2022-11-22T02:26:29.368Z,2.57
2022-11-22T02:29:02.614Z,2.40
2022-11-22T02:31:42.468Z,2.50
2022-11-22T02:34:10.813Z,2.40
2022-11-22T02:36:44.370Z,2.60
2022-11-22T02:39:17.310Z,2.57
2022-11-22T02:41:47.318Z,1.40
2022-11-22T02:44:15.874Z,1.60
2022-11-22T02:46:49.192Z,2.20
2022-11-22T02:49:19.470Z,1.80
2022-11-22T02:51:47.679Z,1.90
2022-11-22T02:54:16.011Z,2.07
2022-11-22T02:56:44.021Z,2.07
2022-11-22T02:59:13.249Z,1.70
2022-11-22T03:01:41.330Z,1.83
2022-11-22T03:04:09.108Z,1.90
2022-11-22T03:06:37.016Z,1.73
2022-11-22T03:09:04.862Z,1.97
2022-11-22T03:11:32.678Z,1.90
2022-11-22T03:14:00.551Z,1.73
2022-11-22T03:16:30.885Z,1.50
2022-11-22T03:18:58.689Z,1.80
2022-11-22T03:21:26.597Z,1.70
2022-11-22T03:23:56.078Z,2.30
2022-11-22T03:26:25.021Z,1.63
2022-11-22T03:28:53.025Z,2.33
2022-11-22T03:31:21.080Z,1.50
2022-11-22T03:33:51.560Z,1.93
2022-11-22T03:36:20.099Z,1.40
2022-11-22T03:38:48.183Z,1.90
2022-11-22T03:41:16.103Z,1.87
2022-11-22T03:43:44.187Z,1.80
2022-11-22T03:46:16.701Z,1.67
2022-11-22T03:48:44.652Z,2.00
2022-11-22T03:51:13.881Z,1.60
2022-11-22T03:53:42.307Z,1.87
2022-11-22T03:56:10.279Z,1.80
2022-11-22T03:58:38.345Z,1.87
2022-11-22T04:01:06.374Z,2.00
2022-11-22T04:03:34.489Z,1.83
2022-11-22T04:06:02.500Z,2.33
2022-11-22T04:08:31.870Z,2.00
2022-11-22T04:10:59.785Z,2.03
2022-11-22T04:13:47.883Z,1.90
2022-11-22T04:16:14.803Z,1.77
2022-11-22T04:18:43.097Z,2.00
2022-11-22T04:21:27.399Z,1.93
2022-11-22T04:24:10.524Z,1.97
2022-11-22T04:26:38.381Z,2.00
2022-11-22T04:29:10.270Z,2.43
2022-11-22T04:31:56.133Z,2.60
2022-11-22T04:34:24.609Z,2.47
2022-11-22T04:36:52.625Z,1.80
2022-11-22T04:39:23.046Z,1.83
2022-11-22T04:42:13.978Z,2.00
2022-11-22T04:44:41.282Z,1.90
2022-11-22T04:47:09.624Z,2.13
2022-11-22T04:49:37.740Z,1.93
2022-11-22T04:52:24.309Z,1.97
2022-11-22T04:54:53.834Z,1.83
2022-11-22T04:57:21.733Z,1.83
2022-11-22T04:59:49.676Z,1.97
2022-11-22T05:02:17.747Z,2.00
2022-11-22T05:04:50.430Z,2.00
2022-11-22T05:07:18.821Z,1.80
2022-11-22T05:09:46.768Z,2.07
2022-11-22T05:12:15.959Z,2.17
2022-11-22T05:14:43.978Z,1.77
2022-11-22T05:17:13.670Z,2.33
2022-11-22T05:19:46.348Z,2.13
2022-11-22T05:22:16.888Z,2.90
2022-11-22T05:24:43.858Z,1.70
2022-11-22T05:27:11.593Z,1.93
2022-11-22T05:29:40.837Z,1.90
2022-11-22T05:32:08.666Z,2.10
2022-11-22T05:34:36.685Z,2.37
2022-11-22T05:37:04.554Z,2.00
2022-11-22T05:39:32.583Z,2.60
2022-11-22T05:42:00.572Z,2.47
2022-11-22T05:44:28.890Z,2.07
2022-11-22T05:46:58.034Z,1.70
2022-11-22T05:49:25.863Z,2.17
2022-11-22T05:51:53.748Z,1.80
2022-11-22T05:54:21.891Z,1.73
2022-11-22T05:56:49.785Z,1.90
2022-11-22T05:59:17.518Z,2.03
2022-11-22T06:01:45.500Z,1.77
2022-11-22T06:04:14.883Z,1.70
2022-11-22T06:06:42.822Z,1.87
2022-11-22T06:09:10.742Z,2.23
2022-11-22T06:11:38.598Z,2.40
2022-11-22T06:14:10.706Z,1.97
2022-11-22T06:16:38.725Z,2.33
2022-11-22T06:19:06.583Z,1.93
2022-11-22T06:21:35.836Z,2.37
2022-11-22T06:24:03.865Z,2.17
2022-11-22T06:26:37.614Z,1.77
2022-11-22T06:29:07.051Z,1.70
2022-11-22T06:31:34.963Z,1.97
2022-11-22T06:34:02.867Z,1.70
2022-11-22T06:36:32.595Z,1.80
2022-11-22T06:39:03.792Z,1.87
2022-11-22T06:41:35.391Z,1.60
2022-11-22T06:44:06.461Z,2.00
2022-11-22T06:46:34.756Z,1.50
2022-11-22T06:49:03.312Z,2.10
2022-11-22T06:51:33.241Z,2.07
2022-11-22T06:54:05.479Z,1.70
2022-11-22T06:56:37.474Z,2.10
2022-11-22T06:59:06.611Z,1.90
2022-11-22T07:01:35.650Z,2.00
2022-11-22T07:04:04.296Z,1.70
2022-11-22T07:06:35.213Z,1.67
2022-11-22T07:09:07.304Z,1.57
2022-11-22T07:11:36.310Z,2.03
2022-11-22T07:14:08.919Z,1.60
2022-11-22T07:16:38.501Z,1.80
2022-11-22T07:19:07.562Z,1.43
2022-11-22T07:21:37.481Z,2.00
2022-11-22T07:24:08.715Z,1.90
2022-11-22T07:26:36.632Z,2.07
2022-11-22T07:29:04.849Z,1.90
2022-11-22T07:31:32.689Z,1.83
2022-11-22T07:34:01.112Z,1.73
2022-11-22T07:36:30.471Z,1.73
2022-11-22T07:38:58.374Z,2.10
2022-11-22T07:41:27.652Z,2.03
2022-11-22T07:43:55.802Z,1.80
2022-11-22T07:46:26.288Z,1.60
2022-11-22T07:48:54.610Z,2.10
2022-11-22T07:51:22.959Z,1.93
2022-11-22T07:53:50.848Z,2.00
2022-11-22T07:56:19.189Z,1.67
2022-11-22T07:58:49.254Z,2.03
2022-11-22T08:01:19.089Z,2.03
2022-11-22T08:03:47.679Z,1.67
2022-11-22T08:06:16.638Z,1.93
2022-11-22T08:08:44.833Z,1.20
2022-11-22T08:11:13.020Z,1.93
2022-11-22T08:13:40.921Z,1.60
2022-11-22T08:16:12.450Z,1.70
2022-11-22T08:18:41.032Z,1.80
2022-11-22T08:21:10.752Z,1.83
2022-11-22T08:23:39.649Z,1.70
2022-11-22T08:26:09.738Z,2.57
2022-11-22T08:28:37.626Z,1.83
2022-11-22T08:31:07.275Z,3.07
2022-11-22T08:33:36.714Z,12.57
2022-11-22T08:36:05.496Z,6.40
2022-11-22T08:38:34.035Z,3.90
2022-11-22T08:41:01.882Z,2.73
2022-11-22T08:43:29.757Z,2.43
2022-11-22T08:45:59.334Z,1.90
2022-11-22T08:48:28.590Z,1.47
2022-11-22T08:50:59.506Z,1.40
2022-11-22T08:53:27.988Z,1.93
2022-11-22T08:55:56.077Z,1.87
2022-11-22T08:58:24.312Z,2.00
2022-11-22T09:00:52.122Z,1.17
2022-11-22T09:03:19.904Z,2.20
2022-11-22T09:08:40.436Z,2.03
2022-11-22T09:11:13.719Z,1.40
2022-11-22T09:13:41.799Z,1.40
2022-11-22T09:16:11.908Z,1.33
2022-11-22T09:18:40.591Z,2.30
2022-11-22T09:21:10.461Z,1.83
2022-11-22T09:23:39.732Z,3.17
2022-11-22T09:26:13.241Z,1.90
2022-11-22T09:28:41.125Z,1.93
2022-11-22T09:31:11.151Z,1.43
2022-11-22T09:33:40.708Z,1.70
2022-11-22T09:36:11.258Z,1.30
2022-11-22T09:38:40.655Z,1.70
2022-11-22T09:41:25.204Z,1.40
2022-11-22T09:44:03.764Z,1.37
2022-11-22T09:46:45.461Z,1.80
2022-11-22T09:49:26.940Z,1.00
2022-11-22T09:52:03.471Z,1.70
2022-11-22T09:54:40.798Z,1.70
2022-11-22T09:57:16.460Z,1.63
2022-11-22T09:59:48.753Z,2.00
2022-11-22T10:02:22.638Z,2.30
2022-11-22T10:04:56.878Z,2.57
2022-11-22T10:07:30.568Z,2.03
2022-11-22T10:10:05.961Z,2.60
2022-11-22T10:12:41.286Z,1.73
2022-11-22T10:15:20.432Z,2.83
2022-11-22T10:17:59.774Z,2.20
2022-11-22T10:20:29.342Z,1.60
2022-11-22T10:22:59.033Z,1.77
2022-11-22T10:25:48.018Z,2.23
2022-11-22T10:28:19.887Z,1.80
2022-11-22T10:30:55.251Z,2.00
2022-11-22T10:33:29.642Z,2.63
2022-11-22T10:36:14.872Z,2.37
2022-11-22T10:39:04.561Z,2.30
2022-11-22T10:41:45.801Z,2.17
2022-11-22T10:44:25.715Z,1.73
2022-11-22T10:47:01.869Z,2.07
2022-11-22T10:49:46.830Z,1.57
2022-11-22T10:52:23.127Z,2.20
2022-11-22T10:55:01.519Z,2.40
2022-11-22T10:57:40.128Z,1.73
2022-11-22T11:00:19.756Z,1.80
2022-11-22T11:03:19.346Z,1.80
2022-11-22T11:09:23.471Z,1.10
2022-11-22T11:11:31.920Z,1.13
2022-11-22T11:14:05.745Z,1.10
2022-11-22T11:16:38.050Z,1.30
2022-11-22T11:19:15.222Z,1.53
2022-11-22T11:21:43.029Z,1.60
2022-11-22T11:24:15.213Z,1.30
2022-11-22T11:26:45.212Z,1.63
2022-11-22T11:29:37.878Z,1.80
2022-11-22T11:32:09.154Z,1.83
2022-11-22T11:34:38.453Z,1.30
2022-11-22T11:37:06.898Z,1.10
2022-11-22T11:39:40.550Z,1.70
2022-11-22T11:42:26.498Z,1.50
2022-11-22T11:44:56.650Z,1.37
2022-11-22T11:47:35.473Z,1.50
2022-11-22T11:50:03.666Z,1.60
2022-11-22T11:52:31.680Z,0.97
2022-11-22T11:55:03.540Z,2.30
2022-11-22T11:57:34.832Z,2.30
2022-11-22T12:00:07.296Z,0.83
2022-11-22T12:02:40.764Z,1.27
2022-11-22T12:05:27.699Z,1.20
2022-11-22T12:07:55.626Z,1.40
2022-11-22T12:10:40.323Z,1.20
2022-11-22T12:13:16.666Z,2.27
2022-11-22T12:15:53.815Z,1.10
2022-11-22T12:18:33.672Z,2.83
2022-11-22T12:21:08.981Z,2.10
2022-11-22T12:23:50.609Z,1.33
2022-11-22T12:26:19.318Z,2.03
2022-11-22T12:28:47.852Z,2.20
2022-11-22T12:31:26.543Z,2.93
2022-11-22T12:33:57.428Z,2.43
2022-11-22T12:36:32.845Z,1.87
2022-11-22T12:39:04.302Z,2.27
2022-11-22T12:41:34.801Z,1.30
2022-11-22T12:44:06.017Z,1.40
2022-11-22T12:46:40.556Z,1.70
2022-11-22T12:49:16.191Z,1.20
2022-11-22T12:51:48.833Z,1.30
2022-11-22T12:54:21.138Z,1.33
2022-11-22T12:56:52.963Z,1.13
2022-11-22T12:59:33.077Z,1.10
2022-11-22T13:02:13.742Z,0.97
2022-11-22T13:04:48.829Z,0.47
2022-11-22T13:07:23.721Z,0.80
2022-11-22T13:09:57.939Z,0.87
2022-11-22T13:12:31.364Z,0.70
2022-11-22T13:15:00.139Z,0.90
2022-11-22T13:17:35.227Z,0.93
2022-11-22T13:20:07.976Z,1.00
2022-11-22T13:22:45.679Z,0.90
2022-11-22T13:25:32.078Z,0.70
2022-11-22T13:28:03.537Z,0.70
2022-11-22T13:30:32.116Z,0.60
2022-11-22T13:33:02.165Z,1.03
2022-11-22T13:35:35.333Z,0.77
2022-11-22T13:38:06.530Z,0.70
2022-11-22T13:40:37.546Z,1.10
2022-11-22T13:43:33.996Z,0.73
2022-11-22T13:46:04.350Z,1.00
2022-11-22T13:49:05.797Z,0.80
2022-11-22T13:51:55.607Z,0.67
2022-11-22T13:54:59.002Z,0.67
2022-11-22T13:57:31.112Z,1.10
2022-11-22T14:00:40.226Z,1.87
2022-11-22T14:03:37.496Z,2.00
2022-11-22T14:06:24.882Z,1.87
2022-11-22T14:09:41.048Z,2.33
2022-11-22T14:15:32.235Z,0.97
2022-11-22T14:18:20.287Z,0.90
2022-11-22T14:21:00.475Z,0.90
2022-11-22T14:23:40.319Z,0.90
2022-11-22T14:26:20.625Z,0.70
2022-11-22T14:29:19.031Z,0.60
2022-11-22T14:31:59.015Z,0.60
2022-11-22T14:34:29.153Z,0.60
2022-11-22T14:37:36.218Z,0.60
2022-11-22T14:40:15.857Z,0.80
2022-11-22T14:42:49.821Z,0.70
2022-11-22T14:45:23.814Z,0.57
2022-11-22T14:48:03.054Z,0.70
2022-11-22T14:50:34.831Z,0.50
2022-11-22T14:53:17.498Z,0.63
2022-11-22T14:55:45.916Z,0.90
2022-11-22T14:58:17.052Z,0.80
2022-11-22T15:01:15.198Z,0.60
2022-11-22T15:09:11.524Z,0.57
2022-11-22T15:09:14.769Z,0.57
2022-11-22T15:10:24.156Z,0.57
2022-11-22T15:13:31.818Z,0.60
2022-11-22T15:59:11.651Z,2.00
2022-11-22T16:01:41.218Z,2.83
2022-11-22T16:04:21.304Z,1.30
2022-11-22T16:06:49.880Z,2.63
2022-11-22T16:09:26.504Z,1.80
2022-11-22T16:12:00.964Z,1.60
2022-11-22T16:14:51.463Z,2.13
2022-11-22T16:17:37.943Z,2.40
2022-11-22T16:20:33.699Z,1.70
2022-11-22T16:23:15.895Z,1.30
2022-11-22T16:25:48.695Z,0.93
2022-11-22T16:28:34.138Z,0.80
2022-11-22T16:31:05.445Z,0.60
2022-11-22T16:33:33.633Z,0.80
2022-11-22T16:36:03.246Z,1.20
2022-11-22T16:38:33.347Z,1.10
2022-11-22T16:41:02.683Z,1.33
2022-11-22T16:43:35.510Z,1.43
2022-11-22T16:46:04.115Z,1.70
2022-11-22T16:48:33.216Z,1.43
2022-11-22T16:51:05.009Z,1.40
2022-11-22T16:53:41.331Z,1.10
2022-11-22T16:56:16.167Z,0.90
2022-11-22T16:58:44.682Z,0.90
2022-11-22T17:01:14.958Z,1.13
2022-11-22T17:03:44.399Z,1.20
2022-11-22T17:06:18.391Z,1.07
2022-11-22T17:08:46.411Z,0.80
2022-11-22T17:11:17.463Z,1.60
2022-11-22T17:13:46.304Z,1.00
2022-11-22T17:16:15.153Z,0.90
2022-11-22T17:18:42.929Z,1.30
2022-11-22T17:21:17.325Z,1.40
2022-11-22T17:23:45.662Z,1.10
2022-11-22T17:26:14.929Z,1.10
2022-11-22T17:28:42.856Z,1.57
2022-11-22T17:31:13.894Z,1.00
2022-11-22T17:33:41.997Z,1.27
2022-11-22T17:36:18.487Z,0.87
2022-11-22T17:38:46.346Z,0.77
2022-11-22T17:41:15.539Z,1.20
2022-11-22T17:43:43.517Z,1.20
2022-11-22T17:46:11.505Z,1.10
2022-11-22T17:48:39.413Z,1.10
2022-11-22T17:51:08.349Z,1.13
2022-11-22T17:53:36.505Z,0.70
2022-11-22T17:56:12.041Z,0.87
2022-11-22T17:58:41.593Z,0.93
2022-11-22T18:01:11.064Z,1.20
2022-11-22T18:03:40.070Z,0.77
2022-11-22T18:06:08.928Z,1.23
2022-11-22T18:08:37.193Z,2.50
2022-11-22T18:11:05.716Z,1.43
2022-11-22T18:13:35.922Z,1.00
2022-11-22T18:16:07.917Z,1.00
2022-11-22T18:18:56.285Z,0.70
2022-11-22T18:21:25.764Z,1.60
2022-11-22T18:23:53.587Z,5.03
2022-11-22T18:26:38.836Z,5.57
2022-11-22T18:31:57.009Z,2.17
2022-11-22T18:34:25.326Z,2.13
2022-11-22T18:37:00.454Z,1.50
2022-11-22T18:39:30.603Z,1.80
2022-11-22T18:41:58.902Z,1.43
2022-11-22T18:44:27.091Z,1.50
2022-11-22T18:46:56.392Z,1.40
2022-11-22T18:49:24.201Z,1.27
2022-11-22T18:51:52.078Z,1.17
2022-11-22T18:54:21.772Z,1.43
2022-11-22T18:56:49.727Z,1.33
2022-11-22T18:59:18.245Z,1.03
2022-11-22T19:01:46.155Z,1.30
2022-11-22T19:04:16.047Z,1.20
2022-11-22T19:06:44.708Z,1.30
2022-11-22T19:09:13.181Z,1.20
2022-11-22T19:11:41.279Z,1.40
2022-11-22T19:14:09.527Z,1.43
2022-11-22T19:16:37.327Z,1.60
2022-11-22T19:19:05.461Z,1.23
2022-11-22T19:21:34.613Z,1.47
2022-11-22T19:24:02.800Z,1.60
2022-11-22T19:26:30.739Z,1.80
2022-11-22T19:29:02.661Z,2.17
2022-11-22T19:31:31.489Z,1.87
2022-11-22T19:34:02.521Z,1.80
2022-11-22T19:36:33.757Z,2.30
2022-11-22T19:39:05.358Z,1.60
2022-11-22T19:41:34.024Z,1.37
2022-11-22T19:44:01.857Z,1.50
2022-11-22T19:46:30.301Z,0.90
2022-11-22T19:48:59.696Z,1.00
2022-11-22T19:51:31.823Z,0.87
2022-11-22T19:54:02.255Z,1.30
2022-11-22T19:56:33.761Z,1.40
2022-11-22T19:59:03.605Z,2.17
2022-11-22T20:01:33.201Z,2.13
2022-11-22T20:04:04.912Z,1.67
2022-11-22T20:06:34.243Z,2.07
2022-11-22T20:09:03.051Z,1.50
2022-11-22T20:11:32.437Z,1.70
2022-11-22T20:14:00.233Z,1.70
2022-11-22T20:16:30.244Z,2.20
2022-11-22T20:18:59.698Z,1.70
2022-11-22T20:21:29.398Z,1.47
2022-11-22T20:23:57.379Z,1.50
2022-11-22T20:26:26.749Z,1.43
2022-11-22T20:29:00.758Z,1.30
2022-11-22T20:31:31.154Z,1.47
2022-11-22T20:34:00.443Z,1.37
2022-11-22T20:36:31.877Z,1.37
2022-11-22T20:39:02.925Z,1.70
2022-11-22T20:41:35.537Z,1.83
2022-11-22T20:44:04.938Z,1.63
2022-11-22T20:46:32.865Z,1.17
2022-11-22T20:49:00.970Z,1.60
2022-11-22T20:51:29.537Z,1.40
2022-11-22T20:53:58.567Z,1.90
2022-11-22T20:56:27.015Z,1.63
2022-11-22T20:58:56.802Z,1.50
2022-11-22T21:01:27.833Z,1.50
2022-11-22T21:03:56.309Z,1.50
2022-11-22T21:06:30.297Z,1.37
2022-11-22T21:09:00.410Z,1.60
2022-11-22T21:11:31.041Z,1.33
2022-11-22T21:14:00.202Z,1.53
2022-11-22T21:16:31.869Z,1.43
2022-11-22T21:19:02.256Z,1.40
2022-11-22T21:21:31.379Z,1.60
2022-11-22T21:24:00.860Z,1.03
2022-11-22T21:26:30.058Z,1.20
2022-11-22T21:28:59.388Z,1.50
2022-11-22T21:31:30.031Z,1.37
2022-11-22T21:33:58.266Z,1.37
2022-11-22T21:36:26.488Z,1.30
2022-11-22T21:38:54.466Z,1.80
2022-11-22T21:41:39.390Z,1.57
2022-11-22T21:44:08.701Z,1.30
2022-11-22T21:46:38.218Z,1.40
2022-11-22T21:49:06.394Z,1.93
2022-11-22T21:51:34.409Z,1.50
2022-11-22T21:54:03.426Z,1.40
2022-11-22T21:56:31.630Z,1.17
2022-11-22T21:59:00.109Z,1.23
2022-11-22T22:01:28.615Z,1.67
2022-11-22T22:03:58.022Z,1.40
2022-11-22T22:06:26.435Z,1.30
2022-11-22T22:08:54.396Z,1.70
2022-11-22T22:11:22.735Z,1.60
2022-11-22T22:13:50.734Z,1.30
2022-11-22T22:16:22.910Z,1.60
2022-11-22T22:18:51.398Z,1.70
2022-11-22T22:21:21.266Z,1.50
2022-11-22T22:23:49.101Z,1.43
2022-11-22T22:26:19.052Z,1.27
2022-11-22T22:28:47.369Z,1.57
2022-11-22T22:31:21.827Z,1.30
2022-11-22T22:33:51.664Z,1.20
2022-11-22T22:36:21.333Z,1.43
2022-11-22T22:38:49.519Z,1.33
2022-11-22T22:41:17.825Z,1.20
2022-11-22T22:43:48.138Z,1.13
2022-11-22T22:46:18.194Z,1.10
2022-11-22T22:48:46.420Z,1.10
2022-11-22T22:51:17.151Z,1.20
2022-11-22T22:53:48.125Z,1.50
2022-11-22T22:56:17.735Z,0.90
2022-11-22T22:58:45.626Z,1.10
2022-11-22T23:01:17.526Z,1.20
2022-11-22T23:03:49.103Z,1.10
2022-11-22T23:06:18.470Z,1.27
2022-11-22T23:08:50.636Z,1.67
2022-11-22T23:11:20.175Z,1.20
2022-11-22T23:13:48.001Z,0.90
2022-11-22T23:16:17.044Z,1.23
2022-11-22T23:18:48.299Z,1.10
2022-11-22T23:21:16.927Z,0.93
2022-11-22T23:23:44.827Z,1.37
2022-11-22T23:26:14.765Z,1.40
2022-11-22T23:28:42.829Z,1.60
2022-11-22T23:31:12.728Z,1.20
2022-11-22T23:33:41.188Z,1.30
2022-11-22T23:36:11.197Z,1.13
2022-11-22T23:38:40.254Z,1.10
2022-11-22T23:41:08.555Z,1.40
2022-11-22T23:43:37.676Z,1.53
2022-11-22T23:46:05.720Z,1.47
2022-11-22T23:48:33.530Z,1.60
2022-11-22T23:51:07.268Z,1.63
2022-11-22T23:53:38.030Z,1.50
2022-11-22T23:56:09.507Z,1.30
2022-11-22T23:58:39.397Z,1.40
